Time;durP1;ratioP1;P1;durP2;ratioP2;P2;SDS_P1;SDS_P2;PMS_P1;PMS_P2;Temp;Humidity;BMP_temperature;BMP_pressure;BME280_temperature;BME280_humidity;BME280_pressure;Samples;Min_cycle;Max_cycle;Signal;HPM_P1;HPM_P2
2022/10/11 06:05:16;;;;;;;;;;;;;;;16.80;72.63;97381.47;4254613;27;11278;-73
2022/10/11 06:07:19;;;;;;;;;;;;;;;17.08;72.09;97386.34;4257868;27;5714;-75
2022/10/11 06:09:23;;;;;;;;;;;;;;;17.29;71.66;97374.41;4258695;27;5619;-72
2022/10/11 06:11:27;;;;;;;;;;;;;;;17.50;71.16;97391.06;4261183;27;5645;-73
2022/10/11 06:13:31;;;;;;;;;;;;;;;17.62;70.80;97390.09;4265356;27;5787;-73
2022/10/11 06:15:39;;;;;;;;;;;;;;;17.73;70.68;97394.72;4260775;27;5961;-76
2022/10/11 06:17:42;;;;;;;;;;;;;;;17.84;70.13;97393.16;4258096;27;5625;-76
2022/10/11 06:19:46;;;;;;;;;;;;;;;17.88;70.00;97386.31;4256405;27;5930;-75
2022/10/11 06:21:57;;;;;;;;;;;;;;;17.97;69.84;97393.00;4263907;27;5655;-87
2022/10/11 06:24:18;;;;;;;;;;;;;;;18.06;69.65;97398.88;4262963;27;5647;-78
2022/10/11 06:26:34;;;;;;;;;;;;;;;18.11;69.75;97401.66;4260012;27;5644;-79
2022/10/11 06:28:37;;;;;;;;;;;;;;;18.17;69.26;97400.78;4260687;27;5669;-74
2022/10/11 06:30:42;;;;;;;;;;;;;;;18.22;69.23;97405.44;4267208;27;5790;-83
2022/10/11 06:32:55;;;;;;;;;;;;;;;18.24;69.08;97408.72;4264276;27;5710;-80
2022/10/11 06:35:07;;;;;;;;;;;;;;;18.20;69.11;97397.63;4256275;27;5740;-74
2022/10/11 06:37:12;;;;;;;;;;;;;;;18.25;68.90;97396.97;4257416;27;5691;-77
2022/10/11 06:39:15;;;;;;;;;;;;;;;18.25;68.59;97396.97;4260359;27;5097;-75
2022/10/11 06:41:20;;;;;;;;;;;;;;;18.35;68.44;97405.28;4249659;27;5637;-76
2022/10/11 06:43:44;;;;;;;;;;;;;;;18.34;68.17;97403.63;4261710;27;5759;-75
2022/10/11 06:46:49;;;;;;;;;;;;;;;18.39;68.18;97416.34;4257061;27;5835;-79
2022/10/11 06:52:43;;;;;;;;;;;;;;;18.30;67.58;97402.44;4208749;28;5561;-80
2022/10/11 06:55:08;;;;;;;;;;;;;;;18.44;67.77;97414.59;4138835;28;5817;-80
2022/10/11 06:57:36;;;;;;;;;;;;;;;18.47;67.42;97419.50;4156114;28;5608;-83
2022/10/11 06:59:54;;;;;;;;;;;;;;;18.49;67.39;97422.78;4146452;28;5779;-87
2022/10/11 07:01:57;;;;;;;;;;;;;;;18.49;67.22;97427.31;4141106;28;5825;-83
2022/10/11 07:04:01;;;;;;;;;;;;;;;18.51;67.22;97431.38;4155286;28;6009;-81
2022/10/11 07:06:21;;;;;;;;;;;;;;;18.53;67.07;97434.66;4130145;28;5964;-72
2022/10/11 07:08:25;;;;;;;;;;;;;;;18.55;66.89;97427.19;4120778;28;6169;-75
2022/10/11 07:13:13;;;;;;;;;;;;;;;18.58;66.79;97437.47;4109767;28;5806;-75
2022/10/11 07:15:30;;;;;;;;;;;;;;;18.60;66.73;97439.94;4119541;28;5862;-79
2022/10/11 07:17:47;;;;;;;;;;;;;;;18.61;66.46;97439.69;4160611;28;5457;-78
2022/10/11 07:19:50;;;;;;;;;;;;;;;18.62;66.47;97435.97;4211495;28;5650;-74
2022/10/11 07:21:53;;;;;;;;;;;;;;;18.63;66.14;97437.59;4234892;28;5265;-81
2022/10/11 07:23:57;;;;;;;;;;;;;;;18.65;66.11;97436.56;4235734;28;8600;-81
2022/10/11 07:26:00;;;;;;;;;;;;;;;18.64;65.93;97438.44;4240254;28;5711;-81
2022/10/11 07:28:04;;;;;;;;;;;;;;;18.66;66.16;97432.84;4237164;28;5655;-81
2022/10/11 07:30:08;;;;;;;;;;;;;;;18.69;66.21;97443.94;4246327;27;5665;-81
2022/10/11 07:32:11;;;;;;;;;;;;;;;18.71;66.03;97431.13;4257780;27;5769;-81
2022/10/11 07:34:15;;;;;;;;;;;;;;;18.75;65.84;97443.00;4253712;27;5657;-82
2022/10/11 07:36:18;;;;;;;;;;;;;;;18.76;65.90;97435.78;4255660;27;5084;-81
2022/10/11 07:38:21;;;;;;;;;;;;;;;18.78;65.87;97436.38;4261842;27;5620;-82
2022/10/11 07:40:25;;;;;;;;;;;;;;;18.79;65.70;97441.50;4259656;27;5616;-81
2022/10/11 07:42:28;;;;;;;;;;;;;;;18.81;65.73;97430.59;4257561;27;5732;-81
2022/10/11 07:44:33;;;;;;;;;;;;;;;18.81;65.79;97441.28;4263552;27;5612;-81
2022/10/11 07:46:35;;;;;;;;;;;;;;;18.81;65.45;97435.94;4267174;27;5706;-81
2022/10/11 07:48:39;;;;;;;;;;;;;;;18.83;65.57;97431.97;4262347;27;5641;-81
2022/10/11 07:50:42;;;;;;;;;;;;;;;18.88;65.58;97439.31;4253542;27;5612;-81
2022/10/11 07:52:45;;;;;;;;;;;;;;;18.88;65.33;97439.31;4265209;27;5593;-81
2022/10/11 07:54:48;;;;;;;;;;;;;;;18.88;65.50;97439.31;4260730;27;5796;-81
2022/10/11 07:56:53;;;;;;;;;;;;;;;18.88;65.34;97442.81;4263092;27;5624;-81
2022/10/11 07:58:58;;;;;;;;;;;;;;;18.90;65.49;97443.38;4264301;27;5621;-81
2022/10/11 08:01:01;;;;;;;;;;;;;;;18.94;65.17;97441.09;4266422;27;5647;-82
2022/10/11 08:03:04;;;;;;;;;;;;;;;18.93;65.44;97450.16;4263798;27;5637;-82
2022/10/11 08:05:09;;;;;;;;;;;;;;;18.95;65.45;97440.03;4251191;27;5641;-81
2022/10/11 08:07:12;;;;;;;;;;;;;;;18.98;65.02;97441.44;4259542;27;5628;-82
2022/10/11 08:09:15;;;;;;;;;;;;;;;19.00;65.14;97440.16;4253974;27;5681;-82
2022/10/11 08:11:23;;;;;;;;;;;;;;;19.03;64.91;97441.56;4258915;27;5657;-82
2022/10/11 08:13:27;;;;;;;;;;;;;;;19.02;65.05;97438.03;4268167;27;5637;-80
2022/10/11 08:15:32;;;;;;;;;;;;;;;19.08;64.82;97447.84;4261717;27;5699;-81
2022/10/11 08:17:35;;;;;;;;;;;;;;;19.08;64.73;97441.69;4260317;27;5647;-82
2022/10/11 08:19:38;;;;;;;;;;;;;;;19.08;64.61;97437.13;4270392;27;5630;-82
2022/10/11 08:21:41;;;;;;;;;;;;;;;19.10;64.65;97448.44;4256183;27;5770;-81
2022/10/11 08:23:45;;;;;;;;;;;;;;;19.11;64.65;97447.38;4256891;27;5755;-82
2022/10/11 08:25:48;;;;;;;;;;;;;;;19.15;64.73;97448.56;4247449;27;5708;-80
2022/10/11 08:27:51;;;;;;;;;;;;;;;19.16;64.53;97450.22;4250855;27;5336;-74
2022/10/11 08:29:55;;;;;;;;;;;;;;;19.18;64.19;97440.06;4247764;27;7687;-74
2022/10/11 08:31:59;;;;;;;;;;;;;;;19.20;64.39;97447.88;4251080;27;5636;-73
2022/10/11 08:34:02;;;;;;;;;;;;;;;19.19;64.20;97447.06;4256562;27;5718;-72
2022/10/11 08:36:06;;;;;;;;;;;;;;;19.20;64.33;97447.88;4254823;27;5702;-72
2022/10/11 08:38:10;;;;;;;;;;;;;;;19.20;64.18;97446.00;4249733;27;5628;-71
2022/10/11 08:40:16;;;;;;;;;;;;;;;19.20;64.10;97451.38;4236883;27;5847;-70
2022/10/11 08:42:28;;;;;;;;;;;;;;;19.20;64.16;97446.00;4236047;27;5636;-71
2022/10/11 08:44:37;;;;;;;;;;;;;;;19.20;63.99;97448.69;4237308;27;5871;-72
2022/10/11 08:47:06;;;;;;;;;;;;;;;19.23;64.19;97446.59;4237849;27;6197;-73
2022/10/11 08:49:13;;;;;;;;;;;;;;;19.24;63.85;97445.53;4247833;27;7133;-71
2022/10/11 08:51:20;;;;;;;;;;;;;;;19.27;63.60;97445.91;4244386;27;5618;-80
2022/10/11 08:53:28;;;;;;;;;;;;;;;19.30;63.57;97447.28;4253514;27;5661;-72
2022/10/11 08:55:37;;;;;;;;;;;;;;;19.31;63.78;97451.59;4242110;27;6293;-71
2022/10/11 08:57:41;;;;;;;;;;;;;;;19.34;63.50;97453.81;4252258;27;5631;-70
2022/10/11 08:59:49;;;;;;;;;;;;;;;19.35;63.65;97442.84;4246429;27;5624;-72
2022/10/11 09:01:57;;;;;;;;;;;;;;;19.36;63.78;97449.03;4248864;27;5768;-73
2022/10/11 09:04:02;;;;;;;;;;;;;;;19.35;63.81;97447.41;4246616;27;5656;-72
2022/10/11 09:06:21;;;;;;;;;;;;;;;19.36;63.35;97449.03;4241101;27;5711;-70
2022/10/11 09:08:34;;;;;;;;;;;;;;;19.36;63.57;97449.03;4244550;27;5727;-69
2022/10/11 09:10:58;;;;;;;;;;;;;;;19.38;63.37;97453.13;4246785;27;5156;-72
2022/10/11 09:13:16;;;;;;;;;;;;;;;19.39;63.30;97446.72;4244985;27;5752;-73
2022/10/11 09:15:29;;;;;;;;;;;;;;;19.41;63.39;97451.84;4243126;27;5657;-74
2022/10/11 09:17:47;;;;;;;;;;;;;;;19.42;63.56;97445.44;4244704;27;5751;-69
2022/10/11 09:20:22;;;;;;;;;;;;;;;19.44;63.25;97440.66;4254882;27;5648;-71
2022/10/11 09:22:36;;;;;;;;;;;;;;;19.46;63.17;97444.72;4268154;27;6601;-80
2022/10/11 09:24:54;;;;;;;;;;;;;;;19.47;63.13;97442.84;4262451;27;5703;-76
2022/10/11 09:27:01;;;;;;;;;;;;;;;19.48;63.37;97441.81;4248305;27;5857;-70
2022/10/11 09:29:11;;;;;;;;;;;;;;;19.49;62.95;97440.78;4239738;27;5653;-71
2022/10/11 09:31:15;;;;;;;;;;;;;;;19.51;63.24;97444.03;4247710;27;5820;-71
2022/10/11 09:33:21;;;;;;;;;;;;;;;19.52;62.95;97444.84;4237079;27;5641;-75
2022/10/11 09:35:25;;;;;;;;;;;;;;;19.55;62.92;97441.69;4239790;27;5691;-72
2022/10/11 09:37:42;;;;;;;;;;;;;;;19.57;63.13;97445.78;4241283;27;5664;-72
2022/10/11 09:39:51;;;;;;;;;;;;;;;19.58;62.86;97443.94;4235968;27;5730;-71
2022/10/11 09:41:59;;;;;;;;;;;;;;;19.58;62.99;97447.44;4241024;27;5713;-69
2022/10/11 09:44:01;;;;;;;;;;;;;;;19.59;62.77;97446.38;4237229;27;5656;-70
2022/10/11 09:46:17;;;;;;;;;;;;;;;19.60;62.88;97444.53;4241566;27;5703;-69
2022/10/11 09:48:24;;;;;;;;;;;;;;;19.56;63.06;97443.34;4238211;27;5649;-70
2022/10/11 09:50:31;;;;;;;;;;;;;;;19.54;63.14;97437.38;4246298;27;5624;-71
2022/10/11 09:52:34;;;;;;;;;;;;;;;19.53;63.29;97438.44;4242603;27;5657;-71
2022/10/11 09:54:41;;;;;;;;;;;;;;;19.50;63.18;97439.72;4243467;27;5806;-71
2022/10/11 09:56:45;;;;;;;;;;;;;;;19.47;63.03;97440.16;4238558;27;5716;-72
2022/10/11 09:58:48;;;;;;;;;;;;;;;19.51;63.37;97437.84;4245743;27;5801;-71
2022/10/11 10:00:58;;;;;;;;;;;;;;;19.57;63.12;97432.38;4248547;27;5636;-75
2022/10/11 10:03:28;;;;;;;;;;;;;;;19.65;62.94;97437.41;4251965;27;5832;-75
2022/10/11 10:05:34;;;;;;;;;;;;;;;19.65;62.79;97442.75;4208905;28;5925;-71
2022/10/11 10:07:39;;;;;;;;;;;;;;;19.66;62.81;97436.34;4210996;28;5791;-69
2022/10/11 10:09:42;;;;;;;;;;;;;;;19.69;62.90;97433.19;4206480;28;5691;-68
2022/10/11 10:11:45;;;;;;;;;;;;;;;19.72;63.00;97438.09;4210112;28;5870;-66
2022/10/11 10:13:51;;;;;;;;;;;;;;;19.73;63.01;97433.56;4205739;28;5814;-63
2022/10/11 10:15:57;;;;;;;;;;;;;;;19.73;62.92;97428.19;4210492;28;6348;-68
2022/10/11 10:18:01;;;;;;;;;;;;;;;19.75;62.90;97429.56;4208028;28;5734;-68
2022/10/11 10:20:05;;;;;;;;;;;;;;;19.74;63.01;97430.63;4212112;28;5722;-66
2022/10/11 10:22:17;;;;;;;;;;;;;;;19.75;62.67;97432.25;4215180;28;5762;-67
2022/10/11 10:24:30;;;;;;;;;;;;;;;19.76;63.16;97431.19;4208070;28;5689;-67
2022/10/11 10:26:33;;;;;;;;;;;;;;;19.77;63.08;97427.47;4208684;28;5793;-67
2022/10/11 10:28:36;;;;;;;;;;;;;;;19.79;62.80;97424.53;4213682;28;5682;-68
2022/10/11 10:30:52;;;;;;;;;;;;;;;19.78;62.71;97430.97;4214974;28;5739;-67
2022/10/11 10:32:59;;;;;;;;;;;;;;;19.80;62.75;97428.03;4205918;28;5903;-68
2022/10/11 10:35:09;;;;;;;;;;;;;;;19.81;62.77;97429.66;4201076;28;6035;-67
2022/10/11 10:37:20;;;;;;;;;;;;;;;19.83;62.70;97423.03;4202594;28;5747;-67
2022/10/11 10:39:29;;;;;;;;;;;;;;;19.83;62.75;97422.22;4208824;28;5765;-67
2022/10/11 10:41:32;;;;;;;;;;;;;;;19.84;62.72;97431.91;4214833;28;5688;-66
2022/10/11 10:43:38;;;;;;;;;;;;;;;19.83;62.71;97427.59;4217510;28;5798;-67
2022/10/11 10:46:02;;;;;;;;;;;;;;;19.84;62.85;97426.53;4211878;28;5799;-67
2022/10/11 10:48:21;;;;;;;;;;;;;;;19.85;62.77;97425.47;4208050;28;5691;-67
2022/10/11 10:50:27;;;;;;;;;;;;;;;19.85;62.79;97423.63;4214537;28;5927;-67
2022/10/11 10:52:48;;;;;;;;;;;;;;;19.86;62.89;97421.75;4206719;28;8742;-67
2022/10/11 10:55:00;;;;;;;;;;;;;;;19.86;62.92;97427.91;4205858;28;5652;-67
2022/10/11 10:57:11;;;;;;;;;;;;;;;19.90;62.64;97425.56;4214493;28;5695;-67
2022/10/11 10:59:35;;;;;;;;;;;;;;;19.91;62.62;97437.94;4215066;28;5842;-67
2022/10/11 11:01:50;;;;;;;;;;;;;;;19.91;62.83;97425.34;4205749;28;5738;-67
2022/10/11 11:04:00;;;;;;;;;;;;;;;19.92;62.48;97426.16;4211397;27;5627;-67
2022/10/11 11:06:06;;;;;;;;;;;;;;;19.96;62.95;97427.31;4235150;27;5791;-67
2022/10/11 11:08:16;;;;;;;;;;;;;;;19.97;62.75;97429.75;4238947;27;5768;-67
2022/10/11 11:10:22;;;;;;;;;;;;;;;19.98;62.40;97419.84;4238999;27;5804;-67
2022/10/11 11:12:39;;;;;;;;;;;;;;;20.00;62.82;97420.41;4244635;27;5894;-67
2022/10/11 11:14:50;;;;;;;;;;;;;;;20.01;62.72;97422.84;4248241;27;5727;-67
2022/10/11 11:17:04;;;;;;;;;;;;;;;20.00;62.53;97418.53;4238231;27;5235;-67
2022/10/11 11:19:20;;;;;;;;;;;;;;;20.00;62.74;97420.41;4252566;27;5615;-67
2022/10/11 11:21:35;;;;;;;;;;;;;;;20.01;62.45;97414.81;4248758;27;5654;-67
2022/10/11 11:23:56;;;;;;;;;;;;;;;20.02;62.50;97404.88;4243826;27;6323;-67
2022/10/11 11:26:07;;;;;;;;;;;;;;;20.04;62.68;97408.13;4237668;27;5624;-68
2022/10/11 11:28:27;;;;;;;;;;;;;;;20.04;62.54;97416.19;4244027;27;5653;-67
2022/10/11 11:30:37;;;;;;;;;;;;;;;20.06;62.64;97411.44;4246814;27;6582;-67
2022/10/11 11:32:48;;;;;;;;;;;;;;;20.06;62.46;97403.38;4241162;27;5091;-68
2022/10/11 11:34:57;;;;;;;;;;;;;;;20.07;62.76;97407.69;4249423;27;5624;-67
2022/10/11 11:37:04;;;;;;;;;;;;;;;20.08;62.69;97403.94;4252471;27;5724;-67
2022/10/11 11:39:15;;;;;;;;;;;;;;;20.09;62.65;97405.56;4244686;27;5645;-67
2022/10/11 11:41:22;;;;;;;;;;;;;;;20.09;62.38;97407.44;4239936;27;5836;-67
2022/10/11 11:43:31;;;;;;;;;;;;;;;20.06;62.63;97403.38;4244998;27;5751;-68
2022/10/11 11:45:44;;;;;;;;;;;;;;;20.07;62.24;97407.69;4241015;27;5636;-68
2022/10/11 11:47:54;;;;;;;;;;;;;;;20.06;62.44;97406.06;4243867;27;5631;-68
2022/10/11 11:50:00;;;;;;;;;;;;;;;20.05;62.73;97404.44;4239920;27;5668;-68
2022/10/11 11:52:06;;;;;;;;;;;;;;;20.08;62.32;97403.94;4243079;27;5648;-67
2022/10/11 11:54:24;;;;;;;;;;;;;;;20.10;62.41;97407.19;4239090;27;5736;-67
2022/10/11 11:56:39;;;;;;;;;;;;;;;20.13;62.45;97406.72;4240888;27;5728;-67
2022/10/11 11:58:48;;;;;;;;;;;;;;;20.16;62.49;97394.69;4238573;27;5641;-67
2022/10/11 12:01:01;;;;;;;;;;;;;;;20.17;62.34;97394.47;4243730;27;6358;-67
2022/10/11 12:03:12;;;;;;;;;;;;;;;20.17;62.09;97391.78;4246791;27;5631;-67
2022/10/11 12:05:18;;;;;;;;;;;;;;;20.19;62.11;97394.22;4203432;28;5724;-68
2022/10/11 12:07:23;;;;;;;;;;;;;;;20.19;61.84;97395.03;4207188;28;5667;-68
2022/10/11 12:09:29;;;;;;;;;;;;;;;20.20;62.21;97379.75;4202288;28;5687;-67
2022/10/11 12:11:45;;;;;;;;;;;;;;;20.19;61.98;97389.66;4203034;28;5783;-68
2022/10/11 12:13:50;;;;;;;;;;;;;;;20.19;61.94;97384.31;4201078;28;5699;-68
2022/10/11 12:15:59;;;;;;;;;;;;;;;20.18;61.78;97382.66;4205812;28;5759;-68
2022/10/11 12:18:14;;;;;;;;;;;;;;;20.21;62.07;97382.19;4201075;28;5887;-66
2022/10/11 12:20:23;;;;;;;;;;;;;;;20.24;61.98;97386.25;4201872;28;5712;-67
2022/10/11 12:22:53;;;;;;;;;;;;;;;20.24;61.88;97370.97;4204857;28;5734;-67
2022/10/11 12:25:00;;;;;;;;;;;;;;;20.24;61.69;97376.31;4212630;28;5696;-67
2022/10/11 12:27:38;;;;;;;;;;;;;;;20.24;61.79;97376.31;4210364;28;5891;-67
2022/10/11 12:29:47;;;;;;;;;;;;;;;20.25;61.52;97366.41;4204840;28;5692;-66
2022/10/11 12:31:50;;;;;;;;;;;;;;;20.25;61.68;97364.53;4201236;28;6391;-67
2022/10/11 12:34:17;;;;;;;;;;;;;;;20.27;61.60;97365.13;4210591;28;5667;-67
2022/10/11 12:36:36;;;;;;;;;;;;;;;20.27;61.34;97359.75;4215804;28;5666;-67
2022/10/11 12:38:41;;;;;;;;;;;;;;;20.29;61.63;97363.00;4201270;28;5703;-67
2022/10/11 12:40:48;;;;;;;;;;;;;;;20.29;61.73;97357.66;4207658;28;5684;-67
2022/10/11 12:43:11;;;;;;;;;;;;;;;20.31;61.63;97358.22;4206084;28;5659;-67
2022/10/11 12:45:32;;;;;;;;;;;;;;;20.31;61.57;97354.72;4208873;28;5708;-66
2022/10/11 12:47:40;;;;;;;;;;;;;;;20.31;61.35;97344.78;4203894;28;5829;-67
2022/10/11 12:49:55;;;;;;;;;;;;;;;20.33;61.24;97347.22;4210378;28;5766;-67
2022/10/11 12:52:01;;;;;;;;;;;;;;;20.34;61.26;97349.66;4209510;28;5690;-67
2022/10/11 12:54:29;;;;;;;;;;;;;;;20.35;61.35;97337.06;4201426;28;5802;-67
2022/10/11 12:56:48;;;;;;;;;;;;;;;20.37;61.49;97343.00;4204397;28;6615;-67
2022/10/11 12:59:01;;;;;;;;;;;;;;;20.41;61.42;97343.34;4206282;28;5686;-67
2022/10/11 13:01:16;;;;;;;;;;;;;;;20.42;61.08;97344.97;4209066;28;6363;-67
2022/10/11 13:03:28;;;;;;;;;;;;;;;20.43;61.55;97341.25;4211772;27;5777;-66
2022/10/11 13:05:43;;;;;;;;;;;;;;;20.43;61.22;97344.75;4246234;27;5872;-66
2022/10/11 13:07:48;;;;;;;;;;;;;;;20.45;61.26;97334.56;4239474;27;5643;-67
2022/10/11 13:09:54;;;;;;;;;;;;;;;20.45;61.00;97339.13;4246458;27;5608;-66
2022/10/11 13:12:03;;;;;;;;;;;;;;;20.43;61.20;97336.69;4250081;27;6424;-67
2022/10/11 13:14:09;;;;;;;;;;;;;;;20.46;61.20;97335.38;4239005;27;5775;-68
2022/10/11 13:16:14;;;;;;;;;;;;;;;20.47;60.98;97327.09;4242757;27;5785;-68
2022/10/11 13:18:18;;;;;;;;;;;;;;;20.48;61.46;97336.78;4250381;27;5620;-67
2022/10/11 13:20:25;;;;;;;;;;;;;;;20.49;61.47;97332.22;4242169;27;5744;-68
2022/10/11 13:22:35;;;;;;;;;;;;;;;20.50;61.11;97329.31;4238766;27;5782;-68
2022/10/11 13:24:41;;;;;;;;;;;;;;;20.49;60.98;97324.97;4239707;27;5724;-67
2022/10/11 13:26:49;;;;;;;;;;;;;;;20.51;61.44;97324.75;4240151;27;5780;-68
2022/10/11 13:28:53;;;;;;;;;;;;;;;20.50;61.06;97321.25;4238719;27;5826;-67
2022/10/11 13:30:58;;;;;;;;;;;;;;;20.51;61.23;97322.06;4243681;27;5657;-68
2022/10/11 13:33:05;;;;;;;;;;;;;;;20.50;61.04;97309.66;4234991;27;5767;-67
2022/10/11 13:35:25;;;;;;;;;;;;;;;20.52;61.02;97312.94;4247737;27;5620;-68
2022/10/11 13:37:30;;;;;;;;;;;;;;;20.52;61.30;97318.31;4243314;27;5788;-68
2022/10/11 13:39:36;;;;;;;;;;;;;;;20.52;60.99;97307.56;4242843;27;5726;-67
2022/10/11 13:41:40;;;;;;;;;;;;;;;20.52;61.66;97307.56;4238316;27;5624;-67
2022/10/11 13:43:45;;;;;;;;;;;;;;;20.52;61.35;97312.94;4243534;27;5665;-68
2022/10/11 13:45:49;;;;;;;;;;;;;;;20.53;61.26;97303.81;4241702;27;5884;-67
2022/10/11 13:47:54;;;;;;;;;;;;;;;20.52;61.13;97302.19;4240862;27;6401;-67
2022/10/11 13:50:02;;;;;;;;;;;;;;;20.52;61.05;97297.66;4246237;27;5764;-67
2022/10/11 13:52:18;;;;;;;;;;;;;;;20.52;61.43;97303.00;4233811;27;5653;-67
2022/10/11 13:54:21;;;;;;;;;;;;;;;20.53;61.49;97298.47;4233086;28;5053;-68
2022/10/11 13:56:25;;;;;;;;;;;;;;;20.53;61.11;97299.28;4233833;27;5756;-67
2022/10/11 13:58:32;;;;;;;;;;;;;;;20.53;61.40;97298.47;4237579;27;5620;-68
2022/10/11 14:00:38;;;;;;;;;;;;;;;20.53;61.24;97293.91;4233898;27;5641;-68
2022/10/11 14:02:47;;;;;;;;;;;;;;;20.53;61.20;97298.47;4235748;27;5666;-68
2022/10/11 14:04:50;;;;;;;;;;;;;;;20.55;61.04;97297.16;4237867;27;5644;-68
2022/10/11 14:06:59;;;;;;;;;;;;;;;20.53;61.50;97293.91;4240509;27;5755;-68
2022/10/11 14:09:02;;;;;;;;;;;;;;;20.52;61.57;97297.66;4237566;27;5620;-69
2022/10/11 14:11:06;;;;;;;;;;;;;;;20.51;61.52;97292.53;4233990;27;5642;-69
2022/10/11 14:13:23;;;;;;;;;;;;;;;20.52;61.27;97288.78;4250169;27;5693;-67
2022/10/11 14:15:29;;;;;;;;;;;;;;;20.53;61.30;97287.72;4237694;27;5714;-68
2022/10/11 14:17:38;;;;;;;;;;;;;;;20.53;61.41;97287.72;4240845;27;5718;-68
2022/10/11 14:19:43;;;;;;;;;;;;;;;20.54;61.31;97289.34;4247983;27;5707;-68
2022/10/11 14:21:50;;;;;;;;;;;;;;;20.52;61.28;97286.09;4237564;27;5763;-67
2022/10/11 14:23:55;;;;;;;;;;;;;;;20.52;61.60;97291.47;4245370;27;6626;-67
2022/10/11 14:25:58;;;;;;;;;;;;;;;20.52;61.35;97291.47;4242591;27;5706;-67
2022/10/11 14:28:01;;;;;;;;;;;;;;;20.51;61.83;97284.47;4247422;27;5736;-66
2022/10/11 14:30:07;;;;;;;;;;;;;;;20.50;61.53;97293.56;4248487;27;5659;-67
2022/10/11 14:32:32;;;;;;;;;;;;;;;20.50;61.65;97293.56;4241683;27;5834;-67
2022/10/11 14:34:35;;;;;;;;;;;;;;;20.49;61.83;97294.63;4245402;27;5744;-67
2022/10/11 14:36:39;;;;;;;;;;;;;;;20.49;61.61;97291.94;4240364;27;5657;-68
2022/10/11 14:38:42;;;;;;;;;;;;;;;20.50;61.99;97286.34;4248807;27;5627;-69
2022/10/11 14:40:45;;;;;;;;;;;;;;;20.49;61.67;97284.69;4240343;27;5653;-66
2022/10/11 14:42:48;;;;;;;;;;;;;;;20.49;61.75;97286.56;4240825;27;5695;-68
2022/10/11 14:44:51;;;;;;;;;;;;;;;20.50;61.64;97282.81;4244647;27;5620;-67
2022/10/11 14:46:54;;;;;;;;;;;;;;;20.49;61.63;97278.50;4239939;27;5717;-67
2022/10/11 14:48:57;;;;;;;;;;;;;;;20.47;61.93;97278.75;4245082;27;5732;-68
2022/10/11 14:51:02;;;;;;;;;;;;;;;20.50;61.81;97282.81;4245259;27;5711;-67
2022/10/11 14:53:08;;;;;;;;;;;;;;;20.51;61.98;97281.78;4243880;27;5756;-64
2022/10/11 14:55:11;;;;;;;;;;;;;;;20.51;61.63;97279.91;4242868;27;5695;-65
2022/10/11 14:57:14;;;;;;;;;;;;;;;20.53;61.92;97276.97;4243191;27;5648;-64
2022/10/11 14:59:19;;;;;;;;;;;;;;;20.53;61.98;97275.09;4247550;27;5703;-66
2022/10/11 15:01:22;;;;;;;;;;;;;;;20.54;61.81;97281.28;4243135;27;5620;-65
2022/10/11 15:03:25;;;;;;;;;;;;;;;20.55;61.71;97280.22;4242674;27;5639;-64
2022/10/11 15:05:30;;;;;;;;;;;;;;;20.57;61.61;97283.47;4246383;27;5624;-66
2022/10/11 15:07:36;;;;;;;;;;;;;;;20.57;61.98;97278.91;4240878;27;5740;-66
2022/10/11 15:09:40;;;;;;;;;;;;;;;20.57;61.65;97278.91;4241361;27;5620;-65
2022/10/11 15:11:43;;;;;;;;;;;;;;;20.55;62.17;97281.03;4238697;27;5851;-65
2022/10/11 15:13:46;;;;;;;;;;;;;;;20.55;62.16;97280.22;4241111;27;5775;-64
2022/10/11 15:15:49;;;;;;;;;;;;;;;20.54;62.17;97284.78;4242049;27;5818;-65
2022/10/11 15:17:54;;;;;;;;;;;;;;;20.53;62.15;97280.47;4244609;27;5830;-66
2022/10/11 15:19:57;;;;;;;;;;;;;;;20.52;61.77;97273.47;4241334;27;5632;-65
2022/10/11 15:22:01;;;;;;;;;;;;;;;20.52;61.87;97283.41;4242465;27;5838;-65
2022/10/11 15:24:04;;;;;;;;;;;;;;;20.51;61.87;97279.91;4241321;27;5754;-65
2022/10/11 15:26:13;;;;;;;;;;;;;;;20.51;62.31;97282.59;4243472;27;5814;-65
2022/10/11 15:28:27;;;;;;;;;;;;;;;20.50;62.19;97282.81;4240272;27;5709;-65
2022/10/11 15:30:33;;;;;;;;;;;;;;;20.52;61.87;97280.72;4241845;27;5767;-65
2022/10/11 15:32:43;;;;;;;;;;;;;;;20.50;62.11;97277.44;4241565;27;5649;-65
2022/10/11 15:34:45;;;;;;;;;;;;;;;20.48;62.19;97266.13;4241467;27;5892;-66
2022/10/11 15:36:48;;;;;;;;;;;;;;;20.50;62.03;97264.00;4243862;27;5809;-66
2022/10/11 15:38:51;;;;;;;;;;;;;;;20.49;62.38;97271.25;4239401;27;5639;-65
2022/10/11 15:40:54;;;;;;;;;;;;;;;20.48;61.99;97272.31;4245218;27;5826;-65
2022/10/11 15:43:00;;;;;;;;;;;;;;;20.47;62.19;97267.19;4246547;27;5661;-66
2022/10/11 15:45:03;;;;;;;;;;;;;;;20.46;62.07;97270.94;4241818;27;5663;-67
2022/10/11 15:47:06;;;;;;;;;;;;;;;20.46;62.16;97273.63;4238793;27;6572;-67
2022/10/11 15:49:11;;;;;;;;;;;;;;;20.43;62.43;97271.44;4236729;27;5661;-66
2022/10/11 15:51:14;;;;;;;;;;;;;;;20.45;62.26;97274.69;4244922;27;5744;-66
2022/10/11 15:53:20;;;;;;;;;;;;;;;20.45;62.59;97269.31;4245499;27;5632;-66
2022/10/11 15:55:23;;;;;;;;;;;;;;;20.44;62.34;97270.38;4237218;27;5754;-66
2022/10/11 15:57:26;;;;;;;;;;;;;;;20.44;62.38;97273.88;4242082;27;5910;-67
2022/10/11 15:59:30;;;;;;;;;;;;;;;20.43;62.43;97268.75;4237652;27;5943;-67
2022/10/11 16:01:33;;;;;;;;;;;;;;;20.44;62.41;97278.44;4240805;27;5703;-67
2022/10/11 16:03:36;;;;;;;;;;;;;;;20.44;62.50;97275.75;4237111;27;5086;-67
2022/10/11 16:05:40;;;;;;;;;;;;;;;20.44;62.76;97273.88;4240251;27;5632;-67
2022/10/11 16:07:43;;;;;;;;;;;;;;;20.43;62.53;97272.25;4237721;27;5708;-66
2022/10/11 16:09:46;;;;;;;;;;;;;;;20.44;62.49;97279.25;4243065;27;5645;-68
2022/10/11 16:11:49;;;;;;;;;;;;;;;20.44;62.49;97275.75;4242376;27;5763;-64
2022/10/11 16:13:52;;;;;;;;;;;;;;;20.43;62.78;97276.81;4241007;27;5812;-65
2022/10/11 16:15:56;;;;;;;;;;;;;;;20.42;62.89;97283.19;4239784;27;5837;-64
2022/10/11 16:17:59;;;;;;;;;;;;;;;20.42;62.79;97288.56;4237947;27;5743;-65
2022/10/11 16:20:05;;;;;;;;;;;;;;;20.39;62.47;97281.00;4237273;27;5739;-65
2022/10/11 16:22:08;;;;;;;;;;;;;;;20.40;62.98;97286.13;4243557;27;5637;-65
2022/10/11 16:24:11;;;;;;;;;;;;;;;20.40;62.58;97288.81;4247412;27;5711;-65
2022/10/11 16:26:15;;;;;;;;;;;;;;;20.42;62.94;97291.25;4251526;27;5821;-65
2022/10/11 16:28:18;;;;;;;;;;;;;;;20.41;62.62;97293.13;4252195;27;5820;-65
2022/10/11 16:30:20;;;;;;;;;;;;;;;20.41;62.77;97293.13;4242017;27;6323;-65
2022/10/11 16:32:26;;;;;;;;;;;;;;;20.40;62.92;97302.25;4243867;27;5706;-65
2022/10/11 16:34:29;;;;;;;;;;;;;;;20.40;63.09;97293.38;4243115;27;5632;-65
2022/10/11 16:36:34;;;;;;;;;;;;;;;20.39;62.92;97297.13;4234771;28;5360;-65
2022/10/11 16:38:37;;;;;;;;;;;;;;;20.38;62.72;97298.16;4242897;27;6347;-64
2022/10/11 16:40:41;;;;;;;;;;;;;;;20.36;62.86;97301.09;4238757;27;5620;-64
2022/10/11 16:42:44;;;;;;;;;;;;;;;20.36;62.78;97303.78;4251382;27;5656;-64
2022/10/11 16:44:47;;;;;;;;;;;;;;;20.35;62.82;97305.66;4237601;27;5626;-64
2022/10/11 16:46:51;;;;;;;;;;;;;;;20.35;63.07;97310.19;4248392;27;6439;-64
2022/10/11 16:48:55;;;;;;;;;;;;;;;20.33;63.01;97310.44;4251539;27;5620;-64
2022/10/11 16:51:05;;;;;;;;;;;;;;;20.33;63.15;97307.75;4252071;27;5623;-64
2022/10/11 16:53:08;;;;;;;;;;;;;;;20.33;62.99;97309.63;4251817;27;5839;-65
2022/10/11 16:55:11;;;;;;;;;;;;;;;20.32;63.04;97324.94;4234206;28;5759;-64
2022/10/11 16:57:15;;;;;;;;;;;;;;;20.32;63.09;97319.56;4234788;28;5641;-63
2022/10/11 16:59:18;;;;;;;;;;;;;;;20.31;63.08;97323.31;4234676;28;6595;-64
2022/10/11 17:01:22;;;;;;;;;;;;;;;20.32;63.04;97311.50;4234790;28;5727;-64
2022/10/11 17:03:24;;;;;;;;;;;;;;;20.34;63.24;97327.38;4244828;27;5714;-65
2022/10/11 17:05:29;;;;;;;;;;;;;;;20.32;63.30;97313.38;4251813;27;5707;-64
2022/10/11 17:07:32;;;;;;;;;;;;;;;20.31;63.35;97312.56;4240303;27;5715;-64
2022/10/11 17:09:34;;;;;;;;;;;;;;;20.28;63.44;97307.69;4244808;27;5425;-64
2022/10/11 17:11:43;;;;;;;;;;;;;;;20.25;63.39;97307.34;4241957;27;7660;-65
2022/10/11 17:13:47;;;;;;;;;;;;;;;20.23;63.10;97301.41;4237184;27;5635;-65
2022/10/11 17:15:50;;;;;;;;;;;;;;;20.22;63.29;97307.84;4238151;27;5826;-64
2022/10/11 17:17:55;;;;;;;;;;;;;;;20.26;63.08;97303.59;4244621;27;5632;-64
2022/10/11 17:19:58;;;;;;;;;;;;;;;20.28;63.08;97304.19;4243268;27;5627;-64
2022/10/11 17:22:02;;;;;;;;;;;;;;;20.29;63.13;97301.25;4238263;27;5780;-64
2022/10/11 17:24:06;;;;;;;;;;;;;;;20.30;63.02;97302.06;4242493;27;6313;-64
2022/10/11 17:26:10;;;;;;;;;;;;;;;20.31;62.76;97301.81;4242947;27;5649;-65